AMQ25Y LBSF-HEGN
Flight info
| Callsign | AMQ25Y |
|---|---|
| Flight time | N/A |
| Altitude | 37000 |
| Route | OMENO3T/27 OMENO Y505 NIKTI UN127 IMR UN128 RDS UL995 VANZA DCT RASDA A16 CVO L315 SOKOT SOKOT1A |
| Aircraft | A320/M-SDE3FGHIRWY/LB1 |
Departure
| Time | 2026-04-30 13:37 |
|---|---|
| Airport | Sofia Airport (LBSF) |
Arrival
| Time | N/A |
|---|---|
| Airport | Hurghada International Airport (HEGN) |
| Time | Latitude | Longitude | Altitude | Speed | Heading |
|---|---|---|---|---|---|
| 2026-04-30 12:39 | 42.68994 | 23.40701 | 1753 ft | 0 kts | 196° |
| 2026-04-30 13:21 | 42.68987 | 23.40698 | 1746 ft | 5 kts | 196° |
| 2026-04-30 13:21 | 42.68971 | 23.40692 | 1753 ft | 1 kts | 196° |
| 2026-04-30 13:22 | 42.68964 | 23.40689 | 1753 ft | 0 kts | 196° |
| 2026-04-30 13:22 | 42.68963 | 23.40689 | 1753 ft | 0 kts | 196° |
| 2026-04-30 13:23 | 42.68962 | 23.40688 | 1753 ft | 0 kts | 196° |
| 2026-04-30 13:24 | 42.68960 | 23.40687 | 1751 ft | 0 kts | 198° |
| 2026-04-30 13:24 | 42.68954 | 23.40691 | 1750 ft | 0 kts | 161° |
| 2026-04-30 13:25 | 42.68937 | 23.40739 | 1747 ft | 3 kts | 108° |
| 2026-04-30 13:25 | 42.68922 | 23.40803 | 1753 ft | 12 kts | 108° |
| 2026-04-30 13:26 | 42.68953 | 23.41079 | 1747 ft | 10 kts | 72° |
| 2026-04-30 13:26 | 42.68979 | 23.41168 | 1749 ft | 0 kts | 57° |
| 2026-04-30 13:27 | 42.68992 | 23.41196 | 1746 ft | 6 kts | 56° |
| 2026-04-30 13:28 | 42.69139 | 23.41190 | 1750 ft | 13 kts | 341° |
| 2026-04-30 13:28 | 42.69263 | 23.41166 | 1746 ft | 6 kts | 13° |
| 2026-04-30 13:28 | 42.69301 | 23.41174 | 1753 ft | 5 kts | 9° |
| 2026-04-30 13:29 | 42.69466 | 23.41226 | 1746 ft | 12 kts | 33° |
| 2026-04-30 13:29 | 42.69479 | 23.41390 | 1753 ft | 9 kts | 96° |
| 2026-04-30 13:30 | 42.69447 | 23.41915 | 1746 ft | 12 kts | 94° |
| 2026-04-30 13:31 | 42.69427 | 23.42275 | 1753 ft | 17 kts | 94° |
| 2026-04-30 13:31 | 42.69406 | 23.42642 | 1746 ft | 10 kts | 94° |
| 2026-04-30 13:32 | 42.69387 | 23.42952 | 1753 ft | 17 kts | 94° |
| 2026-04-30 13:32 | 42.69369 | 23.43245 | 1753 ft | 14 kts | 95° |
| 2026-04-30 13:33 | 42.69350 | 23.43566 | 1753 ft | 21 kts | 94° |
| 2026-04-30 13:33 | 42.69332 | 23.43886 | 1816 ft | 13 kts | 83° |
| 2026-04-30 13:34 | 42.69393 | 23.43949 | 1814 ft | 7 kts | 4° |
| 2026-04-30 13:34 | 42.69398 | 23.43949 | 1811 ft | 0 kts | 4° |
| 2026-04-30 13:35 | 42.69406 | 23.43950 | 1810 ft | 5 kts | 4° |
| 2026-04-30 13:36 | 42.69515 | 23.43925 | 1813 ft | 13 kts | 303° |
| 2026-04-30 13:36 | 42.69527 | 23.43806 | 1813 ft | 16 kts | 275° |
| 2026-04-30 13:36 | 42.69630 | 23.42082 | 1761 ft | 160 kts | 276° |
| 2026-04-30 13:37 | 42.69724 | 23.40598 | 2661 ft | 154 kts | 275° |
| 2026-04-30 13:37 | 42.70444 | 23.37683 | 4003 ft | 185 kts | 307° |
| 2026-04-30 13:38 | 42.72619 | 23.35194 | 5132 ft | 228 kts | 334° |
| 2026-04-30 13:38 | 42.73961 | 23.33844 | 5860 ft | 253 kts | 308° |
| 2026-04-30 13:38 | 42.74031 | 23.29053 | 7873 ft | 282 kts | 238° |
| 2026-04-30 13:39 | 42.70588 | 23.26873 | 10345 ft | 295 kts | 177° |
| 2026-04-30 13:39 | 42.67112 | 23.28268 | 11397 ft | 332 kts | 159° |
| 2026-04-30 13:40 | 42.64282 | 23.30106 | 12663 ft | 340 kts | 157° |
| 2026-04-30 13:40 | 42.62128 | 23.31508 | 13588 ft | 346 kts | 159° |
| 2026-04-30 13:40 | 42.60661 | 23.32406 | 14201 ft | 349 kts | 161° |
| 2026-04-30 13:40 | 42.58386 | 23.33704 | 15038 ft | 352 kts | 163° |
| 2026-04-30 13:41 | 42.56064 | 23.34934 | 15892 ft | 355 kts | 165° |
| 2026-04-30 13:41 | 42.53686 | 23.36136 | 16762 ft | 358 kts | 166° |
| 2026-04-30 13:41 | 42.51334 | 23.37298 | 17578 ft | 364 kts | 166° |
| 2026-04-30 13:41 | 42.48949 | 23.38471 | 18389 ft | 370 kts | 166° |
| 2026-04-30 13:42 | 42.46515 | 23.39676 | 19122 ft | 375 kts | 166° |
| 2026-04-30 13:42 | 42.44024 | 23.40922 | 19882 ft | 378 kts | 166° |
| 2026-04-30 13:42 | 42.39028 | 23.43440 | 21458 ft | 384 kts | 166° |
| 2026-04-30 13:43 | 42.36466 | 23.44729 | 22266 ft | 386 kts | 166° |
| 2026-04-30 13:43 | 42.33907 | 23.46011 | 23061 ft | 389 kts | 166° |
| 2026-04-30 13:43 | 42.31360 | 23.47283 | 23836 ft | 393 kts | 166° |
| 2026-04-30 13:43 | 42.28846 | 23.48852 | 24437 ft | 405 kts | 156° |
| 2026-04-30 13:44 | 42.26440 | 23.50910 | 25004 ft | 412 kts | 154° |
| 2026-04-30 13:44 | 42.24013 | 23.53020 | 25569 ft | 417 kts | 154° |
| 2026-04-30 13:44 | 42.21560 | 23.55148 | 26059 ft | 422 kts | 155° |
| 2026-04-30 13:44 | 42.19077 | 23.57289 | 26609 ft | 426 kts | 155° |
| 2026-04-30 13:45 | 42.14020 | 23.61642 | 27669 ft | 436 kts | 156° |
| 2026-04-30 13:45 | 42.11451 | 23.63851 | 28177 ft | 440 kts | 156° |
| 2026-04-30 13:45 | 42.08847 | 23.66087 | 28537 ft | 445 kts | 156° |
| 2026-04-30 13:46 | 42.06200 | 23.68355 | 28922 ft | 450 kts | 156° |
| 2026-04-30 13:46 | 42.03544 | 23.70626 | 29326 ft | 454 kts | 156° |
| 2026-04-30 13:46 | 42.00898 | 23.72886 | 29779 ft | 458 kts | 156° |
| 2026-04-30 13:46 | 41.98160 | 23.75222 | 30231 ft | 463 kts | 156° |
| 2026-04-30 13:47 | 41.95391 | 23.77585 | 30606 ft | 467 kts | 156° |
| 2026-04-30 13:47 | 41.92636 | 23.79937 | 30979 ft | 471 kts | 156° |
| 2026-04-30 13:47 | 41.89858 | 23.82308 | 31309 ft | 475 kts | 156° |
| 2026-04-30 13:47 | 41.87021 | 23.84729 | 31627 ft | 479 kts | 156° |
| 2026-04-30 13:48 | 41.84199 | 23.87137 | 31953 ft | 483 kts | 156° |
| 2026-04-30 13:48 | 41.81319 | 23.89590 | 32312 ft | 485 kts | 156° |
| 2026-04-30 13:48 | 41.78472 | 23.92014 | 32759 ft | 485 kts | 156° |
| 2026-04-30 13:48 | 41.75622 | 23.94437 | 33149 ft | 485 kts | 156° |
| 2026-04-30 13:49 | 41.72764 | 23.96856 | 33571 ft | 486 kts | 156° |
| 2026-04-30 13:49 | 41.69863 | 23.99306 | 34015 ft | 487 kts | 156° |
| 2026-04-30 13:49 | 41.66955 | 24.01761 | 34425 ft | 488 kts | 156° |
| 2026-04-30 13:49 | 41.64096 | 24.04176 | 34875 ft | 486 kts | 155° |
| 2026-04-30 13:50 | 41.61241 | 24.06588 | 35321 ft | 484 kts | 155° |
| 2026-04-30 13:50 | 41.55540 | 24.11403 | 36293 ft | 479 kts | 155° |
| 2026-04-30 13:50 | 41.52733 | 24.13788 | 36739 ft | 477 kts | 154° |
| 2026-04-30 13:51 | 41.49956 | 24.16222 | 37012 ft | 477 kts | 153° |
| 2026-04-30 13:51 | 41.47173 | 24.18725 | 37071 ft | 474 kts | 153° |
| 2026-04-30 13:51 | 41.41752 | 24.23660 | 37059 ft | 470 kts | 153° |
| 2026-04-30 13:52 | 41.36298 | 24.28453 | 37064 ft | 469 kts | 155° |
| 2026-04-30 13:52 | 41.30714 | 24.33056 | 37057 ft | 469 kts | 156° |
| 2026-04-30 13:53 | 41.26050 | 24.36836 | 37057 ft | 469 kts | 156° |
| 2026-04-30 13:53 | 41.20495 | 24.41392 | 37048 ft | 469 kts | 155° |
| 2026-04-30 13:54 | 41.14965 | 24.45977 | 37057 ft | 469 kts | 155° |
| 2026-04-30 13:54 | 41.09431 | 24.50562 | 37045 ft | 468 kts | 154° |
| 2026-04-30 13:55 | 41.03902 | 24.55109 | 37059 ft | 467 kts | 154° |
| 2026-04-30 13:55 | 40.98382 | 24.59638 | 37062 ft | 467 kts | 154° |
| 2026-04-30 13:56 | 40.92858 | 24.64153 | 37059 ft | 466 kts | 155° |
| 2026-04-30 13:56 | 40.87340 | 24.68666 | 37037 ft | 466 kts | 154° |
| 2026-04-30 13:57 | 40.81829 | 24.73176 | 37021 ft | 466 kts | 154° |
| 2026-04-30 13:57 | 40.76274 | 24.77704 | 37049 ft | 466 kts | 154° |
| 2026-04-30 13:58 | 40.68001 | 24.84414 | 37047 ft | 465 kts | 154° |
| 2026-04-30 13:59 | 40.62496 | 24.88884 | 37038 ft | 465 kts | 154° |
| 2026-04-30 13:59 | 40.56982 | 24.93350 | 37031 ft | 465 kts | 154° |
| 2026-04-30 14:00 | 40.51464 | 24.97806 | 37043 ft | 465 kts | 154° |
| 2026-04-30 14:00 | 40.43187 | 25.04477 | 37041 ft | 465 kts | 154° |
| 2026-04-30 14:01 | 40.37710 | 25.08876 | 37034 ft | 464 kts | 154° |
| 2026-04-30 14:01 | 40.32167 | 25.13313 | 37046 ft | 463 kts | 154° |
| 2026-04-30 14:02 | 40.26675 | 25.17709 | 37046 ft | 463 kts | 154° |
| 2026-04-30 14:02 | 40.21213 | 25.22081 | 37046 ft | 463 kts | 154° |
| 2026-04-30 14:03 | 40.15724 | 25.26469 | 37021 ft | 462 kts | 153° |
| 2026-04-30 14:03 | 40.10237 | 25.30830 | 37023 ft | 462 kts | 154° |
| 2026-04-30 14:04 | 40.04745 | 25.35187 | 37022 ft | 462 kts | 154° |
| 2026-04-30 14:04 | 39.99255 | 25.39532 | 37025 ft | 461 kts | 154° |
| 2026-04-30 14:05 | 39.93767 | 25.43868 | 37030 ft | 461 kts | 154° |
| 2026-04-30 14:05 | 39.88281 | 25.48198 | 37030 ft | 461 kts | 154° |
| 2026-04-30 14:06 | 39.80056 | 25.54685 | 37026 ft | 461 kts | 154° |
| 2026-04-30 14:07 | 39.71835 | 25.61143 | 37024 ft | 460 kts | 154° |
| 2026-04-30 14:08 | 39.63606 | 25.67582 | 36996 ft | 460 kts | 154° |
| 2026-04-30 14:08 | 39.55379 | 25.74012 | 37005 ft | 460 kts | 154° |
| 2026-04-30 14:09 | 39.49904 | 25.78276 | 37011 ft | 460 kts | 154° |
| 2026-04-30 14:10 | 39.41682 | 25.84669 | 36993 ft | 459 kts | 154° |
| 2026-04-30 14:10 | 39.36238 | 25.88893 | 36996 ft | 459 kts | 154° |
| 2026-04-30 14:11 | 39.30718 | 25.93161 | 36996 ft | 459 kts | 153° |
| 2026-04-30 14:11 | 39.25640 | 25.98171 | 36991 ft | 465 kts | 144° |
| 2026-04-30 14:12 | 39.20678 | 26.03519 | 36992 ft | 465 kts | 144° |
| 2026-04-30 14:12 | 39.15708 | 26.08846 | 37003 ft | 465 kts | 144° |
| 2026-04-30 14:13 | 39.10704 | 26.14206 | 36985 ft | 464 kts | 144° |
| 2026-04-30 14:13 | 39.05739 | 26.19512 | 36992 ft | 464 kts | 144° |
| 2026-04-30 14:14 | 39.00765 | 26.24815 | 36998 ft | 464 kts | 144° |
| 2026-04-30 14:14 | 38.95786 | 26.30113 | 36982 ft | 464 kts | 144° |
| 2026-04-30 14:15 | 38.90772 | 26.35432 | 36983 ft | 464 kts | 144° |
| 2026-04-30 14:15 | 38.85758 | 26.40751 | 36973 ft | 464 kts | 144° |
| 2026-04-30 14:16 | 38.80762 | 26.46101 | 36981 ft | 465 kts | 143° |
| 2026-04-30 14:16 | 38.75854 | 26.51610 | 36979 ft | 466 kts | 142° |
| 2026-04-30 14:17 | 38.70970 | 26.57169 | 36968 ft | 466 kts | 142° |
| 2026-04-30 14:17 | 38.66137 | 26.62603 | 36972 ft | 466 kts | 143° |
| 2026-04-30 14:18 | 38.61246 | 26.68048 | 36973 ft | 466 kts | 143° |
| 2026-04-30 14:18 | 38.53905 | 26.76207 | 36961 ft | 466 kts | 143° |
| 2026-04-30 14:19 | 38.46561 | 26.84364 | 36969 ft | 467 kts | 143° |
| 2026-04-30 14:20 | 38.41661 | 26.89795 | 36961 ft | 467 kts | 143° |
| 2026-04-30 14:20 | 38.34294 | 26.97916 | 36966 ft | 467 kts | 143° |
| 2026-04-30 14:21 | 38.28902 | 27.02295 | 36943 ft | 456 kts | 161° |
| 2026-04-30 14:22 | 38.20192 | 27.07099 | 36957 ft | 455 kts | 161° |
| 2026-04-30 14:22 | 38.11497 | 27.11943 | 36963 ft | 455 kts | 161° |
| 2026-04-30 14:23 | 37.99920 | 27.18339 | 36950 ft | 455 kts | 162° |
| 2026-04-30 14:24 | 37.91203 | 27.23142 | 36985 ft | 456 kts | 161° |
| 2026-04-30 14:25 | 37.80500 | 27.29016 | 36972 ft | 456 kts | 161° |
| 2026-04-30 14:26 | 37.71759 | 27.33805 | 36977 ft | 456 kts | 161° |
| 2026-04-30 14:27 | 37.63049 | 27.38557 | 36976 ft | 456 kts | 161° |
| 2026-04-30 14:27 | 37.57242 | 27.41817 | 36976 ft | 457 kts | 160° |
| 2026-04-30 14:28 | 37.48570 | 27.46845 | 36962 ft | 457 kts | 161° |
| 2026-04-30 14:28 | 37.42692 | 27.50004 | 36968 ft | 456 kts | 162° |
| 2026-04-30 14:29 | 37.30938 | 27.56022 | 36977 ft | 456 kts | 162° |
| 2026-04-30 14:31 | 37.16343 | 27.63901 | 36970 ft | 457 kts | 161° |
| 2026-04-30 14:31 | 37.07589 | 27.68648 | 37000 ft | 457 kts | 161° |
| 2026-04-30 14:32 | 36.98830 | 27.73368 | 36981 ft | 457 kts | 161° |
| 2026-04-30 14:33 | 36.92993 | 27.76514 | 36983 ft | 457 kts | 161° |
| 2026-04-30 14:33 | 36.84239 | 27.81215 | 36982 ft | 457 kts | 161° |
| 2026-04-30 14:34 | 36.78391 | 27.84348 | 36970 ft | 457 kts | 161° |
| 2026-04-30 14:34 | 36.72546 | 27.87471 | 36972 ft | 457 kts | 161° |
| 2026-04-30 14:35 | 36.63767 | 27.92106 | 36967 ft | 457 kts | 162° |
| 2026-04-30 14:36 | 36.57861 | 27.95167 | 36972 ft | 456 kts | 162° |
| 2026-04-30 14:36 | 36.52004 | 27.98204 | 36956 ft | 457 kts | 162° |
| 2026-04-30 14:37 | 36.46180 | 28.01384 | 36960 ft | 461 kts | 153° |
| 2026-04-30 14:37 | 36.43567 | 28.03838 | 36963 ft | 468 kts | 140° |
| 2026-04-30 14:37 | 36.41214 | 28.06618 | 36963 ft | 468 kts | 139° |
| 2026-04-30 14:38 | 36.36508 | 28.12295 | 36956 ft | 469 kts | 139° |
| 2026-04-30 14:38 | 36.31839 | 28.17957 | 36961 ft | 469 kts | 139° |
| 2026-04-30 14:39 | 36.27122 | 28.23636 | 36942 ft | 470 kts | 139° |
| 2026-04-30 14:39 | 36.22382 | 28.29298 | 36961 ft | 470 kts | 139° |
| 2026-04-30 14:40 | 36.15304 | 28.37726 | 36964 ft | 471 kts | 139° |
| 2026-04-30 14:40 | 36.10586 | 28.43354 | 36972 ft | 471 kts | 139° |
| 2026-04-30 14:41 | 36.05833 | 28.49012 | 36981 ft | 471 kts | 139° |
| 2026-04-30 14:41 | 36.01074 | 28.54669 | 36981 ft | 472 kts | 139° |
| 2026-04-30 14:42 | 35.96343 | 28.60283 | 36974 ft | 472 kts | 140° |
| 2026-04-30 14:42 | 35.91571 | 28.65924 | 36989 ft | 472 kts | 140° |
| 2026-04-30 14:43 | 35.86790 | 28.71565 | 36980 ft | 472 kts | 139° |
| 2026-04-30 14:43 | 35.82016 | 28.77195 | 36993 ft | 472 kts | 139° |
| 2026-04-30 14:44 | 35.77266 | 28.82791 | 36996 ft | 472 kts | 139° |
| 2026-04-30 14:44 | 35.72514 | 28.88380 | 36999 ft | 472 kts | 139° |
| 2026-04-30 14:45 | 35.67757 | 28.93960 | 37002 ft | 472 kts | 140° |
| 2026-04-30 14:45 | 35.62994 | 28.99527 | 36979 ft | 473 kts | 140° |
| 2026-04-30 14:46 | 35.58229 | 29.05100 | 36981 ft | 473 kts | 140° |
| 2026-04-30 14:46 | 35.54235 | 29.09763 | 36985 ft | 473 kts | 140° |
| 2026-04-30 14:47 | 35.48685 | 29.16233 | 36993 ft | 474 kts | 140° |
| 2026-04-30 14:47 | 35.43898 | 29.21801 | 36994 ft | 474 kts | 140° |
| 2026-04-30 14:48 | 35.39853 | 29.26491 | 36992 ft | 474 kts | 140° |
| 2026-04-30 14:48 | 35.35043 | 29.32079 | 36996 ft | 474 kts | 139° |
| 2026-04-30 14:49 | 35.30258 | 29.37627 | 36974 ft | 474 kts | 140° |
| 2026-04-30 14:49 | 35.25460 | 29.43170 | 36980 ft | 474 kts | 140° |
| 2026-04-30 14:50 | 35.18248 | 29.51469 | 36993 ft | 475 kts | 140° |
| 2026-04-30 14:51 | 35.11040 | 29.59758 | 36993 ft | 475 kts | 140° |
| 2026-04-30 14:52 | 35.03820 | 29.68039 | 36998 ft | 475 kts | 140° |
| 2026-04-30 14:52 | 34.96591 | 29.76306 | 36978 ft | 475 kts | 140° |
| 2026-04-30 14:53 | 34.89343 | 29.84581 | 36981 ft | 476 kts | 140° |
| 2026-04-30 14:54 | 34.79693 | 29.95544 | 36992 ft | 476 kts | 140° |
| 2026-04-30 14:55 | 34.74547 | 30.00606 | 36994 ft | 470 kts | 153° |
| 2026-04-30 14:55 | 34.71669 | 30.02437 | 36996 ft | 466 kts | 159° |
| 2026-04-30 14:56 | 34.59968 | 30.09242 | 36986 ft | 467 kts | 159° |
| 2026-04-30 14:57 | 34.51153 | 30.14386 | 36989 ft | 467 kts | 159° |
| 2026-04-30 14:58 | 34.39355 | 30.21246 | 36996 ft | 467 kts | 159° |
| 2026-04-30 14:58 | 34.30518 | 30.26352 | 37001 ft | 467 kts | 159° |
| 2026-04-30 15:00 | 34.15819 | 30.34843 | 36983 ft | 467 kts | 159° |
| 2026-04-30 15:01 | 34.04031 | 30.41622 | 36992 ft | 468 kts | 159° |
| 2026-04-30 15:01 | 33.95215 | 30.46688 | 37003 ft | 468 kts | 159° |
| 2026-04-30 15:02 | 33.89301 | 30.50079 | 36979 ft | 468 kts | 159° |
| 2026-04-30 15:03 | 33.74534 | 30.58509 | 36994 ft | 469 kts | 159° |
| 2026-04-30 15:04 | 33.60653 | 30.66412 | 36977 ft | 470 kts | 160° |
| 2026-04-30 15:06 | 33.45798 | 30.74845 | 36991 ft | 472 kts | 160° |
| 2026-04-30 15:07 | 33.33830 | 30.81608 | 36977 ft | 473 kts | 160° |
| 2026-04-30 15:08 | 33.21860 | 30.88348 | 36996 ft | 475 kts | 160° |
| 2026-04-30 15:09 | 33.06600 | 30.95401 | 36977 ft | 458 kts | 181° |
| 2026-04-30 15:10 | 32.93822 | 30.96810 | 36991 ft | 459 kts | 181° |
| 2026-04-30 15:11 | 32.74743 | 30.98933 | 36993 ft | 460 kts | 182° |
| 2026-04-30 15:13 | 32.58825 | 31.00698 | 36984 ft | 461 kts | 182° |
| 2026-04-30 15:14 | 32.36324 | 31.03197 | 36978 ft | 463 kts | 182° |
| 2026-04-30 15:17 | 32.07286 | 31.06384 | 36992 ft | 463 kts | 182° |
| 2026-04-30 15:19 | 31.81546 | 31.09170 | 37010 ft | 463 kts | 182° |